sensor_id;sensor_type;location;lat;lon;timestamp;pressure;altitude;pressure_sealevel;temperature;humidity
31088;BME280;17745;55.914;37.554;2024-01-15T00:00:08;96995.12;;;-4.88;54.34
31088;BME280;17745;55.914;37.554;2024-01-15T00:05:45;96984.44;;;-4.92;54.40
31088;BME280;17745;55.914;37.554;2024-01-15T00:08:30;96987.59;;;-4.90;54.42
31088;BME280;17745;55.914;37.554;2024-01-15T00:10:59;96985.97;;;-4.84;54.46
31088;BME280;17745;55.914;37.554;2024-01-15T00:14:40;96979.97;;;-4.78;54.48
31088;BME280;17745;55.914;37.554;2024-01-15T00:17:45;96980.13;;;-4.72;54.42
31088;BME280;17745;55.914;37.554;2024-01-15T00:20:19;96980.72;;;-4.70;54.47
31088;BME280;17745;55.914;37.554;2024-01-15T00:22:59;96987.25;;;-4.68;54.47
31088;BME280;17745;55.914;37.554;2024-01-15T00:25:27;96983.47;;;-4.65;54.49
31088;BME280;17745;55.914;37.554;2024-01-15T00:28:22;96986.06;;;-4.65;54.48
31088;BME280;17745;55.914;37.554;2024-01-15T00:31:02;96975.53;;;-4.70;54.58
31088;BME280;17745;55.914;37.554;2024-01-15T00:33:45;96971.19;;;-4.70;54.55
31088;BME280;17745;55.914;37.554;2024-01-15T00:36:20;96974.94;;;-4.66;54.55
31088;BME280;17745;55.914;37.554;2024-01-15T00:45:01;96965.09;;;-4.50;54.54
31088;BME280;17745;55.914;37.554;2024-01-15T00:47:48;96961.09;;;-4.46;54.50
31088;BME280;17745;55.914;37.554;2024-01-15T00:50:33;96955.13;;;-4.47;54.51
31088;BME280;17745;55.914;37.554;2024-01-15T00:53:05;96961.50;;;-4.49;54.51
31088;BME280;17745;55.914;37.554;2024-01-15T00:55:47;96956.78;;;-4.52;54.57
31088;BME280;17745;55.914;37.554;2024-01-15T00:58:41;96952.81;;;-4.55;54.63
31088;BME280;17745;55.914;37.554;2024-01-15T01:04:18;96951.84;;;-4.61;54.77
31088;BME280;17745;55.914;37.554;2024-01-15T01:06:48;96951.25;;;-4.63;54.75
31088;BME280;17745;55.914;37.554;2024-01-15T01:09:35;96939.16;;;-4.62;54.75
31088;BME280;17745;55.914;37.554;2024-01-15T01:12:05;96946.09;;;-4.63;54.72
31088;BME280;17745;55.914;37.554;2024-01-15T01:14:47;96938.59;;;-4.64;54.82
31088;BME280;17745;55.914;37.554;2024-01-15T01:17:34;96939.59;;;-4.65;54.77
31088;BME280;17745;55.914;37.554;2024-01-15T01:29:57;96925.03;;;-4.60;54.94
31088;BME280;17745;55.914;37.554;2024-01-15T01:32:41;96925.78;;;-4.52;54.89
31088;BME280;17745;55.914;37.554;2024-01-15T01:35:24;96925.78;;;-4.52;54.81
31088;BME280;17745;55.914;37.554;2024-01-15T01:38:07;96921.81;;;-4.55;54.82
31088;BME280;17745;55.914;37.554;2024-01-15T01:41:04;96922.63;;;-4.54;54.86
31088;BME280;17745;55.914;37.554;2024-01-15T01:43:59;96920.81;;;-4.54;54.84
31088;BME280;17745;55.914;37.554;2024-01-15T01:46:55;96909.28;;;-4.51;54.92
31088;BME280;17745;55.914;37.554;2024-01-15T01:57:00;96908.09;;;-4.30;54.76
31088;BME280;17745;55.914;37.554;2024-01-15T02:00:30;96904.66;;;-4.24;54.85
31088;BME280;17745;55.914;37.554;2024-01-15T02:27:06;96891.16;;;-3.89;54.94
31088;BME280;17745;55.914;37.554;2024-01-15T02:30:07;96886.72;;;-3.81;54.90
31088;BME280;17745;55.914;37.554;2024-01-15T02:39:29;96877.44;;;-3.70;54.94
31088;BME280;17745;55.914;37.554;2024-01-15T02:51:52;96888.22;;;-3.55;54.79
31088;BME280;17745;55.914;37.554;2024-01-15T02:54:48;96890.34;;;-3.52;54.89
31088;BME280;17745;55.914;37.554;2024-01-15T02:57:41;96879.78;;;-3.50;54.84
31088;BME280;17745;55.914;37.554;2024-01-15T03:00:43;96879.56;;;-3.49;54.91
31088;BME280;17745;55.914;37.554;2024-01-15T03:03:42;96884.09;;;-3.44;55.00
31088;BME280;17745;55.914;37.554;2024-01-15T03:06:42;96875.66;;;-3.39;54.98
31088;BME280;17745;55.914;37.554;2024-01-15T03:13:03;96869.81;;;-3.35;54.96
31088;BME280;17745;55.914;37.554;2024-01-15T03:15:35;96868.03;;;-3.34;55.01
31088;BME280;17745;55.914;37.554;2024-01-15T03:18:24;96866.78;;;-3.32;55.04
31088;BME280;17745;55.914;37.554;2024-01-15T03:21:14;96863.75;;;-3.28;55.09
31088;BME280;17745;55.914;37.554;2024-01-15T03:24:00;96858.75;;;-3.23;54.98
31088;BME280;17745;55.914;37.554;2024-01-15T03:27:02;96872.81;;;-3.19;55.02
31088;BME280;17745;55.914;37.554;2024-01-15T03:52:08;96846.75;;;-3.06;55.62
31088;BME280;17745;55.914;37.554;2024-01-15T03:55:05;96845.19;;;-2.95;55.57
31088;BME280;17745;55.914;37.554;2024-01-15T03:58:16;96843.25;;;-2.88;55.52
31088;BME280;17745;55.914;37.554;2024-01-15T04:01:25;96846.88;;;-2.77;55.47
31088;BME280;17745;55.914;37.554;2024-01-15T04:04:29;96840.78;;;-2.70;55.42
31088;BME280;17745;55.914;37.554;2024-01-15T20:12:34;96639.78;;;1.71;60.03
